sensor_id;sensor_type;location;lat;lon;timestamp;P1;durP1;ratioP1;P2;durP2;ratioP2
23608;SDS011;11982;50.810;4.442;2023-11-21T00:00:25;90.35;;;35.88;;
23608;SDS011;11982;50.810;4.442;2023-11-21T00:02:51;95.75;;;36.50;;
23608;SDS011;11982;50.810;4.442;2023-11-21T00:05:17;84.72;;;35.95;;
23608;SDS011;11982;50.810;4.442;2023-11-21T00:07:43;88.78;;;35.53;;
23608;SDS011;11982;50.810;4.442;2023-11-21T00:10:09;93.25;;;35.58;;
23608;SDS011;11982;50.810;4.442;2023-11-21T00:12:36;89.40;;;33.80;;
23608;SDS011;11982;50.810;4.442;2023-11-21T00:15:01;81.50;;;35.30;;
23608;SDS011;11982;50.810;4.442;2023-11-21T00:17:28;86.85;;;35.95;;
23608;SDS011;11982;50.810;4.442;2023-11-21T00:19:53;79.60;;;34.42;;
23608;SDS011;11982;50.810;4.442;2023-11-21T00:22:19;81.20;;;35.13;;
23608;SDS011;11982;50.810;4.442;2023-11-21T00:24:48;86.18;;;35.70;;
23608;SDS011;11982;50.810;4.442;2023-11-21T00:27:14;85.45;;;35.50;;
23608;SDS011;11982;50.810;4.442;2023-11-21T00:29:40;83.97;;;36.47;;
23608;SDS011;11982;50.810;4.442;2023-11-21T00:32:06;83.28;;;36.45;;
23608;SDS011;11982;50.810;4.442;2023-11-21T00:34:32;88.82;;;35.78;;
23608;SDS011;11982;50.810;4.442;2023-11-21T00:36:58;89.05;;;36.55;;
23608;SDS011;11982;50.810;4.442;2023-11-21T00:39:24;96.30;;;37.88;;
23608;SDS011;11982;50.810;4.442;2023-11-21T00:41:52;91.78;;;38.45;;
23608;SDS011;11982;50.810;4.442;2023-11-21T00:44:18;90.93;;;37.08;;
23608;SDS011;11982;50.810;4.442;2023-11-21T00:46:43;89.43;;;36.92;;
23608;SDS011;11982;50.810;4.442;2023-11-21T00:49:09;86.13;;;35.20;;
23608;SDS011;11982;50.810;4.442;2023-11-21T00:51:35;92.28;;;38.17;;
23608;SDS011;11982;50.810;4.442;2023-11-21T00:54:01;85.95;;;35.25;;
23608;SDS011;11982;50.810;4.442;2023-11-21T00:56:27;90.03;;;36.72;;
23608;SDS011;11982;50.810;4.442;2023-11-21T00:58:53;86.38;;;35.17;;
23608;SDS011;11982;50.810;4.442;2023-11-21T01:01:19;99.20;;;37.88;;
23608;SDS011;11982;50.810;4.442;2023-11-21T01:03:46;99.00;;;39.45;;
23608;SDS011;11982;50.810;4.442;2023-11-21T01:06:12;100.75;;;38.38;;
23608;SDS011;11982;50.810;4.442;2023-11-21T01:08:38;94.20;;;37.78;;
23608;SDS011;11982;50.810;4.442;2023-11-21T01:11:04;93.75;;;38.45;;
23608;SDS011;11982;50.810;4.442;2023-11-21T01:13:32;92.85;;;36.75;;
23608;SDS011;11982;50.810;4.442;2023-11-21T01:15:58;85.93;;;37.65;;
23608;SDS011;11982;50.810;4.442;2023-11-21T01:18:24;85.35;;;36.08;;
23608;SDS011;11982;50.810;4.442;2023-11-21T01:20:54;91.13;;;37.35;;
23608;SDS011;11982;50.810;4.442;2023-11-21T01:23:20;94.90;;;39.03;;
23608;SDS011;11982;50.810;4.442;2023-11-21T01:25:45;89.65;;;37.55;;
23608;SDS011;11982;50.810;4.442;2023-11-21T01:28:11;85.15;;;37.05;;
23608;SDS011;11982;50.810;4.442;2023-11-21T01:30:37;88.72;;;38.13;;
23608;SDS011;11982;50.810;4.442;2023-11-21T01:33:03;94.53;;;36.13;;
23608;SDS011;11982;50.810;4.442;2023-11-21T01:35:29;81.03;;;35.45;;
23608;SDS011;11982;50.810;4.442;2023-11-21T01:37:55;79.63;;;36.05;;
23608;SDS011;11982;50.810;4.442;2023-11-21T01:40:21;74.43;;;33.97;;
23608;SDS011;11982;50.810;4.442;2023-11-21T01:42:46;79.93;;;35.15;;
23608;SDS011;11982;50.810;4.442;2023-11-21T01:45:13;85.40;;;34.55;;
23608;SDS011;11982;50.810;4.442;2023-11-21T01:47:39;77.78;;;35.88;;
23608;SDS011;11982;50.810;4.442;2023-11-21T01:50:09;84.05;;;34.88;;
23608;SDS011;11982;50.810;4.442;2023-11-21T01:52:38;72.18;;;33.45;;
23608;SDS011;11982;50.810;4.442;2023-11-21T01:55:06;78.68;;;32.55;;
23608;SDS011;11982;50.810;4.442;2023-11-21T01:57:37;71.35;;;32.38;;
23608;SDS011;11982;50.810;4.442;2023-11-21T02:00:04;71.68;;;33.20;;
23608;SDS011;11982;50.810;4.442;2023-11-21T02:02:43;70.32;;;31.75;;
23608;SDS011;11982;50.810;4.442;2023-11-21T02:05:13;70.45;;;33.03;;
23608;SDS011;11982;50.810;4.442;2023-11-21T02:07:43;65.45;;;31.25;;
23608;SDS011;11982;50.810;4.442;2023-11-21T02:10:12;71.93;;;32.28;;
23608;SDS011;11982;50.810;4.442;2023-11-21T02:12:43;74.43;;;33.38;;
23608;SDS011;11982;50.810;4.442;2023-11-21T02:15:12;68.50;;;31.83;;
23608;SDS011;11982;50.810;4.442;2023-11-21T02:17:45;65.20;;;31.45;;
23608;SDS011;11982;50.810;4.442;2023-11-21T02:20:18;68.43;;;32.53;;
23608;SDS011;11982;50.810;4.442;2023-11-21T02:22:53;73.88;;;33.50;;
23608;SDS011;11982;50.810;4.442;2023-11-21T02:25:28;70.50;;;31.05;;
23608;SDS011;11982;50.810;4.442;2023-11-21T02:27:56;66.72;;;32.10;;
23608;SDS011;11982;50.810;4.442;2023-11-21T02:30:23;62.05;;;31.40;;
23608;SDS011;11982;50.810;4.442;2023-11-21T02:32:50;68.18;;;31.40;;
23608;SDS011;11982;50.810;4.442;2023-11-21T02:35:19;64.65;;;32.00;;
23608;SDS011;11982;50.810;4.442;2023-11-21T02:37:48;63.60;;;32.53;;
23608;SDS011;11982;50.810;4.442;2023-11-21T02:40:14;62.65;;;31.33;;
23608;SDS011;11982;50.810;4.442;2023-11-21T02:42:47;68.25;;;31.20;;
23608;SDS011;11982;50.810;4.442;2023-11-21T02:45:13;67.10;;;30.35;;
23608;SDS011;11982;50.810;4.442;2023-11-21T02:47:41;64.20;;;30.70;;
23608;SDS011;11982;50.810;4.442;2023-11-21T02:50:09;70.85;;;33.47;;
23608;SDS011;11982;50.810;4.442;2023-11-21T02:52:35;76.85;;;32.60;;
23608;SDS011;11982;50.810;4.442;2023-11-21T02:55:04;79.60;;;33.50;;
23608;SDS011;11982;50.810;4.442;2023-11-21T02:57:30;70.70;;;32.97;;
23608;SDS011;11982;50.810;4.442;2023-11-21T02:59:55;80.05;;;33.10;;
23608;SDS011;11982;50.810;4.442;2023-11-21T03:02:21;74.95;;;32.83;;
23608;SDS011;11982;50.810;4.442;2023-11-21T03:04:47;74.03;;;33.47;;
23608;SDS011;11982;50.810;4.442;2023-11-21T03:07:14;73.35;;;33.55;;
23608;SDS011;11982;50.810;4.442;2023-11-21T03:09:46;73.47;;;34.17;;
23608;SDS011;11982;50.810;4.442;2023-11-21T03:12:12;67.40;;;32.78;;
23608;SDS011;11982;50.810;4.442;2023-11-21T03:14:39;67.25;;;31.17;;
23608;SDS011;11982;50.810;4.442;2023-11-21T03:17:05;67.63;;;30.27;;
23608;SDS011;11982;50.810;4.442;2023-11-21T03:19:31;65.70;;;31.15;;
23608;SDS011;11982;50.810;4.442;2023-11-21T03:21:57;67.55;;;30.77;;
23608;SDS011;11982;50.810;4.442;2023-11-21T03:24:23;62.83;;;30.65;;
23608;SDS011;11982;50.810;4.442;2023-11-21T03:26:50;58.10;;;29.83;;
23608;SDS011;11982;50.810;4.442;2023-11-21T03:32:23;60.13;;;28.38;;
23608;SDS011;11982;50.810;4.442;2023-11-21T03:34:55;57.53;;;28.63;;
23608;SDS011;11982;50.810;4.442;2023-11-21T03:37:22;61.53;;;29.60;;
23608;SDS011;11982;50.810;4.442;2023-11-21T03:39:49;58.67;;;29.42;;
23608;SDS011;11982;50.810;4.442;2023-11-21T03:42:15;54.75;;;28.70;;
23608;SDS011;11982;50.810;4.442;2023-11-21T03:44:41;60.72;;;28.10;;
23608;SDS011;11982;50.810;4.442;2023-11-21T03:47:07;61.92;;;30.90;;
23608;SDS011;11982;50.810;4.442;2023-11-21T03:49:33;58.72;;;28.88;;
23608;SDS011;11982;50.810;4.442;2023-11-21T03:51:58;66.30;;;30.83;;
23608;SDS011;11982;50.810;4.442;2023-11-21T03:54:24;54.83;;;28.05;;
23608;SDS011;11982;50.810;4.442;2023-11-21T03:56:50;57.95;;;27.23;;
23608;SDS011;11982;50.810;4.442;2023-11-21T03:59:17;66.00;;;28.52;;
23608;SDS011;11982;50.810;4.442;2023-11-21T04:01:42;56.00;;;27.10;;
23608;SDS011;11982;50.810;4.442;2023-11-21T04:04:08;61.80;;;28.48;;
23608;SDS011;11982;50.810;4.442;2023-11-21T04:06:34;66.70;;;29.40;;
23608;SDS011;11982;50.810;4.442;2023-11-21T04:09:00;64.32;;;30.15;;
23608;SDS011;11982;50.810;4.442;2023-11-21T04:11:26;59.83;;;31.05;;
23608;SDS011;11982;50.810;4.442;2023-11-21T04:13:54;61.58;;;30.33;;
23608;SDS011;11982;50.810;4.442;2023-11-21T04:16:20;61.45;;;30.70;;
23608;SDS011;11982;50.810;4.442;2023-11-21T04:18:46;67.30;;;33.33;;
23608;SDS011;11982;50.810;4.442;2023-11-21T04:21:11;62.83;;;31.80;;
23608;SDS011;11982;50.810;4.442;2023-11-21T04:23:37;69.55;;;32.67;;
23608;SDS011;11982;50.810;4.442;2023-11-21T04:26:05;64.30;;;33.83;;
23608;SDS011;11982;50.810;4.442;2023-11-21T04:28:30;64.32;;;32.58;;
23608;SDS011;11982;50.810;4.442;2023-11-21T04:30:56;75.78;;;34.13;;
23608;SDS011;11982;50.810;4.442;2023-11-21T04:33:22;73.85;;;34.67;;
23608;SDS011;11982;50.810;4.442;2023-11-21T04:35:47;77.53;;;34.13;;
23608;SDS011;11982;50.810;4.442;2023-11-21T04:38:13;70.05;;;33.78;;
23608;SDS011;11982;50.810;4.442;2023-11-21T04:40:39;62.97;;;31.45;;
23608;SDS011;11982;50.810;4.442;2023-11-21T04:43:04;62.40;;;32.30;;
23608;SDS011;11982;50.810;4.442;2023-11-21T04:45:30;67.80;;;31.33;;
23608;SDS011;11982;50.810;4.442;2023-11-21T04:47:56;64.15;;;32.53;;
23608;SDS011;11982;50.810;4.442;2023-11-21T04:50:22;67.20;;;32.15;;
23608;SDS011;11982;50.810;4.442;2023-11-21T04:52:47;69.32;;;31.92;;
23608;SDS011;11982;50.810;4.442;2023-11-21T04:55:13;68.45;;;32.35;;
23608;SDS011;11982;50.810;4.442;2023-11-21T04:57:40;65.32;;;32.65;;
23608;SDS011;11982;50.810;4.442;2023-11-21T05:00:07;67.22;;;32.65;;
23608;SDS011;11982;50.810;4.442;2023-11-21T05:02:34;61.42;;;30.38;;
23608;SDS011;11982;50.810;4.442;2023-11-21T05:05:00;61.13;;;31.27;;
23608;SDS011;11982;50.810;4.442;2023-11-21T05:07:26;67.47;;;31.92;;
23608;SDS011;11982;50.810;4.442;2023-11-21T05:09:54;66.45;;;31.58;;
23608;SDS011;11982;50.810;4.442;2023-11-21T05:12:21;58.92;;;30.67;;
23608;SDS011;11982;50.810;4.442;2023-11-21T05:14:50;56.40;;;29.85;;
23608;SDS011;11982;50.810;4.442;2023-11-21T05:17:16;54.42;;;29.15;;
23608;SDS011;11982;50.810;4.442;2023-11-21T05:19:42;74.93;;;32.05;;
23608;SDS011;11982;50.810;4.442;2023-11-21T05:22:10;66.03;;;33.00;;
23608;SDS011;11982;50.810;4.442;2023-11-21T05:24:37;62.13;;;31.13;;
23608;SDS011;11982;50.810;4.442;2023-11-21T05:27:04;65.13;;;32.05;;
23608;SDS011;11982;50.810;4.442;2023-11-21T05:29:30;57.53;;;31.27;;
23608;SDS011;11982;50.810;4.442;2023-11-21T05:31:56;68.82;;;32.55;;
23608;SDS011;11982;50.810;4.442;2023-11-21T05:34:22;65.22;;;33.05;;
23608;SDS011;11982;50.810;4.442;2023-11-21T05:36:49;74.85;;;33.40;;
23608;SDS011;11982;50.810;4.442;2023-11-21T05:39:15;68.22;;;32.85;;
23608;SDS011;11982;50.810;4.442;2023-11-21T05:41:42;63.15;;;32.00;;
23608;SDS011;11982;50.810;4.442;2023-11-21T05:44:08;78.68;;;34.33;;
23608;SDS011;11982;50.810;4.442;2023-11-21T05:46:34;86.97;;;34.45;;
23608;SDS011;11982;50.810;4.442;2023-11-21T05:49:00;85.85;;;35.63;;
23608;SDS011;11982;50.810;4.442;2023-11-21T05:51:25;75.10;;;33.47;;
23608;SDS011;11982;50.810;4.442;2023-11-21T05:53:51;70.40;;;33.17;;
23608;SDS011;11982;50.810;4.442;2023-11-21T05:56:17;74.57;;;34.38;;
23608;SDS011;11982;50.810;4.442;2023-11-21T05:58:43;63.00;;;32.42;;
23608;SDS011;11982;50.810;4.442;2023-11-21T06:01:08;58.95;;;31.27;;
23608;SDS011;11982;50.810;4.442;2023-11-21T06:03:37;66.38;;;33.83;;
23608;SDS011;11982;50.810;4.442;2023-11-21T06:06:03;66.75;;;33.88;;
23608;SDS011;11982;50.810;4.442;2023-11-21T06:08:30;64.75;;;33.25;;
23608;SDS011;11982;50.810;4.442;2023-11-21T06:10:55;68.00;;;34.05;;
23608;SDS011;11982;50.810;4.442;2023-11-21T06:13:21;61.17;;;33.83;;
23608;SDS011;11982;50.810;4.442;2023-11-21T06:15:49;66.50;;;35.17;;
23608;SDS011;11982;50.810;4.442;2023-11-21T06:18:16;76.60;;;37.25;;
23608;SDS011;11982;50.810;4.442;2023-11-21T06:20:44;70.38;;;36.60;;
23608;SDS011;11982;50.810;4.442;2023-11-21T06:23:13;65.93;;;35.55;;
23608;SDS011;11982;50.810;4.442;2023-11-21T06:25:39;70.07;;;36.83;;
23608;SDS011;11982;50.810;4.442;2023-11-21T06:28:05;70.43;;;35.75;;
23608;SDS011;11982;50.810;4.442;2023-11-21T06:30:31;67.35;;;38.10;;
23608;SDS011;11982;50.810;4.442;2023-11-21T06:32:57;76.32;;;35.47;;
23608;SDS011;11982;50.810;4.442;2023-11-21T06:35:23;67.10;;;34.38;;
23608;SDS011;11982;50.810;4.442;2023-11-21T06:37:48;79.53;;;38.00;;
23608;SDS011;11982;50.810;4.442;2023-11-21T06:40:14;72.78;;;37.78;;
23608;SDS011;11982;50.810;4.442;2023-11-21T06:42:40;68.88;;;35.65;;
23608;SDS011;11982;50.810;4.442;2023-11-21T06:45:06;67.40;;;34.83;;
23608;SDS011;11982;50.810;4.442;2023-11-21T06:47:33;70.45;;;35.60;;
23608;SDS011;11982;50.810;4.442;2023-11-21T06:49:59;67.18;;;36.22;;
23608;SDS011;11982;50.810;4.442;2023-11-21T06:52:25;69.38;;;36.28;;
23608;SDS011;11982;50.810;4.442;2023-11-21T06:54:51;70.80;;;36.13;;
23608;SDS011;11982;50.810;4.442;2023-11-21T06:57:17;64.70;;;34.70;;
23608;SDS011;11982;50.810;4.442;2023-11-21T06:59:43;68.22;;;35.58;;
23608;SDS011;11982;50.810;4.442;2023-11-21T07:02:09;75.88;;;36.15;;
23608;SDS011;11982;50.810;4.442;2023-11-21T07:04:35;71.15;;;36.92;;
23608;SDS011;11982;50.810;4.442;2023-11-21T07:07:01;68.32;;;35.95;;
23608;SDS011;11982;50.810;4.442;2023-11-21T07:09:27;67.15;;;36.08;;
23608;SDS011;11982;50.810;4.442;2023-11-21T07:11:53;65.43;;;34.58;;
23608;SDS011;11982;50.810;4.442;2023-11-21T07:14:20;85.97;;;39.03;;
23608;SDS011;11982;50.810;4.442;2023-11-21T07:16:46;79.45;;;37.88;;
23608;SDS011;11982;50.810;4.442;2023-11-21T07:19:12;63.90;;;35.38;;
23608;SDS011;11982;50.810;4.442;2023-11-21T07:21:39;74.15;;;37.35;;
23608;SDS011;11982;50.810;4.442;2023-11-21T07:24:05;68.80;;;36.83;;
23608;SDS011;11982;50.810;4.442;2023-11-21T07:26:32;79.95;;;37.88;;
23608;SDS011;11982;50.810;4.442;2023-11-21T07:28:59;75.07;;;38.65;;
23608;SDS011;11982;50.810;4.442;2023-11-21T07:31:25;73.10;;;37.15;;
23608;SDS011;11982;50.810;4.442;2023-11-21T07:33:51;81.63;;;38.80;;
23608;SDS011;11982;50.810;4.442;2023-11-21T07:36:21;74.70;;;36.88;;
23608;SDS011;11982;50.810;4.442;2023-11-21T07:38:47;81.47;;;38.75;;
23608;SDS011;11982;50.810;4.442;2023-11-21T07:41:13;81.43;;;39.67;;
23608;SDS011;11982;50.810;4.442;2023-11-21T07:43:43;81.07;;;39.40;;
23608;SDS011;11982;50.810;4.442;2023-11-21T07:46:25;89.53;;;39.90;;
23608;SDS011;11982;50.810;4.442;2023-11-21T07:48:52;74.78;;;37.78;;
23608;SDS011;11982;50.810;4.442;2023-11-21T07:51:18;73.40;;;35.85;;
23608;SDS011;11982;50.810;4.442;2023-11-21T07:53:44;74.00;;;37.83;;
23608;SDS011;11982;50.810;4.442;2023-11-21T07:56:10;80.25;;;39.53;;
23608;SDS011;11982;50.810;4.442;2023-11-21T07:58:36;76.32;;;39.33;;
23608;SDS011;11982;50.810;4.442;2023-11-21T08:01:02;71.13;;;37.60;;
23608;SDS011;11982;50.810;4.442;2023-11-21T08:03:28;73.35;;;38.00;;
23608;SDS011;11982;50.810;4.442;2023-11-21T08:05:55;79.47;;;39.65;;
23608;SDS011;11982;50.810;4.442;2023-11-21T08:08:21;77.63;;;39.88;;
23608;SDS011;11982;50.810;4.442;2023-11-21T08:10:47;82.95;;;40.15;;
23608;SDS011;11982;50.810;4.442;2023-11-21T08:13:13;89.15;;;42.33;;
23608;SDS011;11982;50.810;4.442;2023-11-21T08:15:41;78.20;;;39.90;;
23608;SDS011;11982;50.810;4.442;2023-11-21T08:18:11;83.75;;;41.63;;
23608;SDS011;11982;50.810;4.442;2023-11-21T08:20:37;86.78;;;41.28;;
23608;SDS011;11982;50.810;4.442;2023-11-21T08:23:04;82.88;;;41.05;;
23608;SDS011;11982;50.810;4.442;2023-11-21T08:25:31;98.85;;;41.83;;
23608;SDS011;11982;50.810;4.442;2023-11-21T08:27:57;93.78;;;43.60;;
23608;SDS011;11982;50.810;4.442;2023-11-21T08:30:24;85.07;;;43.17;;
23608;SDS011;11982;50.810;4.442;2023-11-21T08:32:50;98.80;;;44.70;;
23608;SDS011;11982;50.810;4.442;2023-11-21T08:35:18;97.40;;;42.70;;
23608;SDS011;11982;50.810;4.442;2023-11-21T08:37:44;101.85;;;43.67;;
23608;SDS011;11982;50.810;4.442;2023-11-21T08:40:10;95.50;;;42.20;;
23608;SDS011;11982;50.810;4.442;2023-11-21T08:42:41;87.60;;;42.30;;
23608;SDS011;11982;50.810;4.442;2023-11-21T08:45:07;100.65;;;43.75;;
23608;SDS011;11982;50.810;4.442;2023-11-21T08:47:34;92.80;;;42.35;;
23608;SDS011;11982;50.810;4.442;2023-11-21T08:50:01;88.18;;;41.47;;
23608;SDS011;11982;50.810;4.442;2023-11-21T08:52:27;96.03;;;42.25;;
23608;SDS011;11982;50.810;4.442;2023-11-21T08:54:53;93.00;;;42.67;;
23608;SDS011;11982;50.810;4.442;2023-11-21T08:57:22;95.68;;;41.97;;
23608;SDS011;11982;50.810;4.442;2023-11-21T08:59:48;90.38;;;41.67;;
23608;SDS011;11982;50.810;4.442;2023-11-21T09:02:13;105.47;;;42.33;;
23608;SDS011;11982;50.810;4.442;2023-11-21T09:04:39;101.47;;;43.75;;
23608;SDS011;11982;50.810;4.442;2023-11-21T09:07:04;111.60;;;45.58;;
23608;SDS011;11982;50.810;4.442;2023-11-21T09:09:30;97.60;;;43.38;;
23608;SDS011;11982;50.810;4.442;2023-11-21T09:11:56;100.07;;;42.28;;
23608;SDS011;11982;50.810;4.442;2023-11-21T09:17:22;110.97;;;44.25;;
23608;SDS011;11982;50.810;4.442;2023-11-21T09:19:47;113.82;;;45.38;;
23608;SDS011;11982;50.810;4.442;2023-11-21T09:22:16;98.82;;;45.42;;
23608;SDS011;11982;50.810;4.442;2023-11-21T09:24:42;105.32;;;44.65;;
23608;SDS011;11982;50.810;4.442;2023-11-21T09:27:08;106.18;;;45.72;;
23608;SDS011;11982;50.810;4.442;2023-11-21T09:37:46;108.15;;;45.88;;
23608;SDS011;11982;50.810;4.442;2023-11-21T09:40:12;128.95;;;48.42;;
23608;SDS011;11982;50.810;4.442;2023-11-21T09:42:54;120.80;;;46.70;;
23608;SDS011;11982;50.810;4.442;2023-11-21T09:45:28;97.57;;;44.13;;
23608;SDS011;11982;50.810;4.442;2023-11-21T09:48:00;108.28;;;45.00;;
23608;SDS011;11982;50.810;4.442;2023-11-21T09:50:27;109.13;;;44.70;;
23608;SDS011;11982;50.810;4.442;2023-11-21T09:53:06;101.72;;;44.20;;
23608;SDS011;11982;50.810;4.442;2023-11-21T09:55:42;94.68;;;44.30;;
23608;SDS011;11982;50.810;4.442;2023-11-21T09:58:11;114.13;;;44.97;;
23608;SDS011;11982;50.810;4.442;2023-11-21T10:00:41;103.65;;;43.97;;
23608;SDS011;11982;50.810;4.442;2023-11-21T10:03:08;104.13;;;43.63;;
23608;SDS011;11982;50.810;4.442;2023-11-21T10:05:35;106.25;;;44.67;;
23608;SDS011;11982;50.810;4.442;2023-11-21T10:08:07;100.57;;;43.88;;
23608;SDS011;11982;50.810;4.442;2023-11-21T10:10:35;125.68;;;45.97;;
23608;SDS011;11982;50.810;4.442;2023-11-21T10:13:03;101.70;;;43.83;;
23608;SDS011;11982;50.810;4.442;2023-11-21T10:15:32;106.47;;;43.90;;
23608;SDS011;11982;50.810;4.442;2023-11-21T10:18:02;104.70;;;43.33;;
23608;SDS011;11982;50.810;4.442;2023-11-21T10:20:30;95.97;;;42.95;;
23608;SDS011;11982;50.810;4.442;2023-11-21T10:22:57;102.20;;;42.20;;
23608;SDS011;11982;50.810;4.442;2023-11-21T10:25:22;97.10;;;42.40;;
23608;SDS011;11982;50.810;4.442;2023-11-21T10:27:48;80.85;;;38.00;;
23608;SDS011;11982;50.810;4.442;2023-11-21T10:30:17;77.85;;;34.72;;
23608;SDS011;11982;50.810;4.442;2023-11-21T10:32:43;64.80;;;32.13;;
23608;SDS011;11982;50.810;4.442;2023-11-21T10:35:09;64.30;;;29.30;;
23608;SDS011;11982;50.810;4.442;2023-11-21T10:37:39;63.97;;;30.90;;
23608;SDS011;11982;50.810;4.442;2023-11-21T10:40:08;66.53;;;32.30;;
23608;SDS011;11982;50.810;4.442;2023-11-21T10:42:40;64.10;;;31.17;;
23608;SDS011;11982;50.810;4.442;2023-11-21T10:45:09;67.10;;;31.38;;
23608;SDS011;11982;50.810;4.442;2023-11-21T10:47:41;50.13;;;28.20;;
23608;SDS011;11982;50.810;4.442;2023-11-21T10:50:08;53.20;;;30.10;;
23608;SDS011;11982;50.810;4.442;2023-11-21T10:52:42;46.22;;;26.00;;
23608;SDS011;11982;50.810;4.442;2023-11-21T10:55:17;42.28;;;26.10;;
23608;SDS011;11982;50.810;4.442;2023-11-21T10:57:46;45.55;;;26.60;;
23608;SDS011;11982;50.810;4.442;2023-11-21T11:00:14;48.90;;;26.73;;
23608;SDS011;11982;50.810;4.442;2023-11-21T11:02:44;49.72;;;26.25;;
23608;SDS011;11982;50.810;4.442;2023-11-21T11:05:13;48.10;;;26.60;;
23608;SDS011;11982;50.810;4.442;2023-11-21T11:07:51;51.47;;;26.63;;
23608;SDS011;11982;50.810;4.442;2023-11-21T11:10:37;48.88;;;25.92;;
23608;SDS011;11982;50.810;4.442;2023-11-21T11:13:03;41.13;;;24.80;;
23608;SDS011;11982;50.810;4.442;2023-11-21T11:15:31;44.78;;;25.60;;
23608;SDS011;11982;50.810;4.442;2023-11-21T11:17:58;42.88;;;25.10;;
23608;SDS011;11982;50.810;4.442;2023-11-21T11:20:29;49.80;;;26.95;;
23608;SDS011;11982;50.810;4.442;2023-11-21T11:23:45;49.00;;;26.00;;
23608;SDS011;11982;50.810;4.442;2023-11-21T11:28:37;56.85;;;28.83;;
23608;SDS011;11982;50.810;4.442;2023-11-21T11:33:44;55.75;;;28.35;;
23608;SDS011;11982;50.810;4.442;2023-11-21T11:36:34;64.20;;;30.52;;
23608;SDS011;11982;50.810;4.442;2023-11-21T11:39:26;64.68;;;32.65;;
23608;SDS011;11982;50.810;4.442;2023-11-21T11:42:01;62.08;;;31.58;;
23608;SDS011;11982;50.810;4.442;2023-11-21T11:55:00;58.88;;;31.63;;
23608;SDS011;11982;50.810;4.442;2023-11-21T11:57:30;55.78;;;32.17;;
23608;SDS011;11982;50.810;4.442;2023-11-21T12:03:02;52.60;;;31.23;;
23608;SDS011;11982;50.810;4.442;2023-11-21T12:05:29;64.28;;;31.73;;
23608;SDS011;11982;50.810;4.442;2023-11-21T12:08:02;57.60;;;31.40;;
23608;SDS011;11982;50.810;4.442;2023-11-21T12:10:31;59.60;;;33.42;;
23608;SDS011;11982;50.810;4.442;2023-11-21T12:12:58;59.80;;;33.47;;
23608;SDS011;11982;50.810;4.442;2023-11-21T12:15:26;60.65;;;34.25;;
23608;SDS011;11982;50.810;4.442;2023-11-21T12:17:55;62.40;;;33.78;;
23608;SDS011;11982;50.810;4.442;2023-11-21T12:20:21;61.33;;;35.45;;
23608;SDS011;11982;50.810;4.442;2023-11-21T12:22:52;66.70;;;36.33;;
23608;SDS011;11982;50.810;4.442;2023-11-21T12:25:23;61.42;;;36.17;;
23608;SDS011;11982;50.810;4.442;2023-11-21T12:27:57;56.40;;;32.38;;
23608;SDS011;11982;50.810;4.442;2023-11-21T12:33:26;43.72;;;26.15;;
23608;SDS011;11982;50.810;4.442;2023-11-21T12:35:57;41.35;;;24.27;;
23608;SDS011;11982;50.810;4.442;2023-11-21T12:38:23;39.08;;;25.35;;
23608;SDS011;11982;50.810;4.442;2023-11-21T12:40:49;38.83;;;24.02;;
23608;SDS011;11982;50.810;4.442;2023-11-21T12:43:16;44.63;;;24.23;;
23608;SDS011;11982;50.810;4.442;2023-11-21T12:45:43;39.92;;;24.63;;
23608;SDS011;11982;50.810;4.442;2023-11-21T12:48:09;39.40;;;23.98;;
23608;SDS011;11982;50.810;4.442;2023-11-21T12:50:37;34.22;;;22.45;;
23608;SDS011;11982;50.810;4.442;2023-11-21T12:53:04;38.83;;;23.70;;
23608;SDS011;11982;50.810;4.442;2023-11-21T12:55:33;37.67;;;24.10;;
23608;SDS011;11982;50.810;4.442;2023-11-21T12:58:03;34.38;;;22.75;;
23608;SDS011;11982;50.810;4.442;2023-11-21T13:00:42;41.65;;;25.58;;
23608;SDS011;11982;50.810;4.442;2023-11-21T13:03:11;34.65;;;22.52;;
23608;SDS011;11982;50.810;4.442;2023-11-21T13:05:40;38.92;;;22.42;;
23608;SDS011;11982;50.810;4.442;2023-11-21T13:13:43;36.10;;;23.38;;
23608;SDS011;11982;50.810;4.442;2023-11-21T13:16:09;30.83;;;23.80;;
23608;SDS011;11982;50.810;4.442;2023-11-21T13:18:35;32.97;;;22.73;;
23608;SDS011;11982;50.810;4.442;2023-11-21T13:21:02;33.20;;;21.10;;
23608;SDS011;11982;50.810;4.442;2023-11-21T13:23:35;34.20;;;22.48;;
23608;SDS011;11982;50.810;4.442;2023-11-21T13:26:04;33.05;;;23.00;;
23608;SDS011;11982;50.810;4.442;2023-11-21T13:28:30;32.92;;;22.13;;
23608;SDS011;11982;50.810;4.442;2023-11-21T13:30:59;31.13;;;21.90;;
23608;SDS011;11982;50.810;4.442;2023-11-21T13:33:36;35.47;;;20.77;;
23608;SDS011;11982;50.810;4.442;2023-11-21T13:36:06;38.40;;;22.65;;
23608;SDS011;11982;50.810;4.442;2023-11-21T13:38:34;41.38;;;24.98;;
23608;SDS011;11982;50.810;4.442;2023-11-21T13:41:01;39.85;;;24.70;;
23608;SDS011;11982;50.810;4.442;2023-11-21T13:43:28;42.30;;;25.25;;
23608;SDS011;11982;50.810;4.442;2023-11-21T13:45:54;42.65;;;26.10;;
23608;SDS011;11982;50.810;4.442;2023-11-21T13:48:38;50.45;;;30.33;;
23608;SDS011;11982;50.810;4.442;2023-11-21T13:51:08;41.70;;;27.45;;
23608;SDS011;11982;50.810;4.442;2023-11-21T13:53:48;35.22;;;22.45;;
23608;SDS011;11982;50.810;4.442;2023-11-21T13:58:58;32.08;;;22.02;;
23608;SDS011;11982;50.810;4.442;2023-11-21T14:01:30;31.83;;;19.63;;
23608;SDS011;11982;50.810;4.442;2023-11-21T14:04:03;33.33;;;20.13;;
23608;SDS011;11982;50.810;4.442;2023-11-21T14:06:47;30.15;;;19.20;;
23608;SDS011;11982;50.810;4.442;2023-11-21T14:09:20;19.02;;;12.52;;
23608;SDS011;11982;50.810;4.442;2023-11-21T14:11:48;20.17;;;12.60;;
23608;SDS011;11982;50.810;4.442;2023-11-21T14:14:25;20.73;;;13.75;;
23608;SDS011;11982;50.810;4.442;2023-11-21T14:16:55;24.40;;;15.05;;
23608;SDS011;11982;50.810;4.442;2023-11-21T14:21:57;25.17;;;15.18;;
23608;SDS011;11982;50.810;4.442;2023-11-21T14:24:23;26.23;;;14.90;;
23608;SDS011;11982;50.810;4.442;2023-11-21T14:26:49;24.00;;;13.88;;
23608;SDS011;11982;50.810;4.442;2023-11-21T14:29:16;17.55;;;11.38;;
23608;SDS011;11982;50.810;4.442;2023-11-21T14:31:45;17.17;;;9.27;;
23608;SDS011;11982;50.810;4.442;2023-11-21T14:34:11;16.38;;;9.60;;
23608;SDS011;11982;50.810;4.442;2023-11-21T14:36:38;12.93;;;8.00;;
23608;SDS011;11982;50.810;4.442;2023-11-21T14:39:05;12.93;;;7.65;;
23608;SDS011;11982;50.810;4.442;2023-11-21T14:41:48;15.38;;;9.80;;
23608;SDS011;11982;50.810;4.442;2023-11-21T14:44:14;12.88;;;8.10;;
23608;SDS011;11982;50.810;4.442;2023-11-21T14:46:40;14.20;;;8.82;;
23608;SDS011;11982;50.810;4.442;2023-11-21T14:49:11;12.88;;;7.93;;
23608;SDS011;11982;50.810;4.442;2023-11-21T14:51:48;13.65;;;9.20;;
23608;SDS011;11982;50.810;4.442;2023-11-21T14:54:28;12.20;;;8.95;;
23608;SDS011;11982;50.810;4.442;2023-11-21T14:59:49;13.80;;;8.38;;
23608;SDS011;11982;50.810;4.442;2023-11-21T15:02:23;15.25;;;9.60;;
23608;SDS011;11982;50.810;4.442;2023-11-21T15:05:08;17.90;;;11.48;;
23608;SDS011;11982;50.810;4.442;2023-11-21T15:07:40;20.55;;;13.13;;
23608;SDS011;11982;50.810;4.442;2023-11-21T15:10:06;23.92;;;12.85;;
23608;SDS011;11982;50.810;4.442;2023-11-21T15:12:38;21.65;;;14.07;;
23608;SDS011;11982;50.810;4.442;2023-11-21T15:15:05;25.40;;;15.07;;